Lanton, Missouri
Current Conditions -  °F | °C
As of 7:53 AM on Saturday 25 Oct 2014 (Local Time) from KUNO Reporting Station
Haze Haze  
Wind Chill: 58°   Ceiling: Unl
Heat Index: 58°   Visibility: 5mi
Dew Point: 56°   Wind: 7mph
Humidity: 93%   Direction: 250°WSW
Pressure: 30.08"   Gusts: NA
Location:  36.7256°N, 91.9123°W
Report Text: KUNO 251253Z AUTO 25006KT 5SM BR CLR 14/13 A3008 RMK AO2 SLP180 T01440133
Loading
Personal Weather Stations






























Interactive Weather Map
Tropical Storm Tracking
New forecast layout! Learn more

10-Day Weather Forecast

Advertisements
Track Severe Weather on mobile